createdAt,value
2023-05-05T00:00:49.715Z,15.67
2023-05-05T00:04:51.410Z,15.67
2023-05-05T00:08:53.115Z,15.65
2023-05-05T00:12:55.004Z,15.56
2023-05-05T00:16:57.010Z,15.45
2023-05-05T00:20:58.726Z,15.33
2023-05-05T00:25:02.460Z,15.18
2023-05-05T00:29:04.154Z,15.02
2023-05-05T00:33:06.025Z,14.87
2023-05-05T00:37:07.707Z,14.77
2023-05-05T00:41:09.638Z,14.67
2023-05-05T00:45:13.480Z,14.62
2023-05-05T00:49:16.553Z,14.64
2023-05-05T00:53:18.511Z,14.67
2023-05-05T00:57:20.771Z,14.73
2023-05-05T01:01:24.253Z,14.79
2023-05-05T01:05:27.943Z,14.83
2023-05-05T01:09:32.526Z,14.88
2023-05-05T01:13:53.957Z,14.91
2023-05-05T01:18:04.125Z,14.94
2023-05-05T01:22:09.014Z,14.89
2023-05-05T01:26:22.245Z,14.84
2023-05-05T01:30:53.443Z,14.77
2023-05-05T01:35:33.744Z,14.70
2023-05-05T01:39:37.931Z,14.67
2023-05-05T01:43:41.339Z,14.68
2023-05-05T01:47:45.105Z,14.67
2023-05-05T01:51:48.076Z,14.64
2023-05-05T01:55:50.903Z,14.53
2023-05-05T01:59:53.109Z,14.37
2023-05-05T02:03:57.361Z,14.27
2023-05-05T02:08:00.505Z,14.19
2023-05-05T02:12:05.364Z,14.13
2023-05-05T02:16:09.435Z,14.07
2023-05-05T02:20:12.804Z,14.05
2023-05-05T02:24:14.582Z,14.07
2023-05-05T02:28:28.628Z,14.12
2023-05-05T02:32:48.673Z,14.20
2023-05-05T02:36:54.458Z,14.22
2023-05-05T02:40:58.508Z,14.23
2023-05-05T02:45:04.600Z,14.23
2023-05-05T02:49:07.510Z,14.21
2023-05-05T02:53:10.822Z,14.20
2023-05-05T02:57:18.014Z,14.21
2023-05-05T03:01:57.461Z,14.22
2023-05-05T03:06:18.298Z,14.25
2023-05-05T03:10:31.223Z,14.29
2023-05-05T03:14:41.714Z,14.34
2023-05-05T03:18:48.516Z,14.38
2023-05-05T03:22:51.074Z,14.37
2023-05-05T03:26:53.939Z,14.29
2023-05-05T03:30:59.462Z,14.19
2023-05-05T03:35:01.469Z,14.08
2023-05-05T03:39:08.409Z,13.97
2023-05-05T03:43:10.068Z,13.86
2023-05-05T03:47:12.882Z,13.72
2023-05-05T03:51:15.711Z,13.65
2023-05-05T03:55:17.717Z,13.56
2023-05-05T03:59:19.552Z,13.51
2023-05-05T04:03:21.570Z,13.45
2023-05-05T04:07:23.963Z,13.40
2023-05-05T04:11:26.342Z,13.41
2023-05-05T04:15:30.331Z,13.45
2023-05-05T04:19:32.528Z,13.53
2023-05-05T04:23:36.843Z,13.56
2023-05-05T04:27:39.080Z,13.64
2023-05-05T04:31:41.877Z,13.72
2023-05-05T04:35:43.673Z,13.76
2023-05-05T04:39:45.813Z,13.80
2023-05-05T04:43:47.676Z,13.81
2023-05-05T04:47:50.439Z,13.87
2023-05-05T04:51:52.194Z,14.01
2023-05-05T04:55:54.038Z,14.21
2023-05-05T04:59:55.898Z,14.33
2023-05-05T05:03:57.784Z,14.41
2023-05-05T05:07:59.521Z,14.45
2023-05-05T05:12:04.407Z,14.47
2023-05-05T05:16:06.706Z,14.49
2023-05-05T05:20:09.195Z,14.54
2023-05-05T05:24:11.832Z,14.62
2023-05-05T05:28:13.864Z,14.70
2023-05-05T05:32:21.781Z,14.71
2023-05-05T05:36:24.136Z,14.72
2023-05-05T05:40:28.128Z,14.76
2023-05-05T05:44:30.416Z,14.81
2023-05-05T05:48:32.176Z,14.86
2023-05-05T05:52:36.364Z,14.96
2023-05-05T05:56:40.249Z,15.06
2023-05-05T06:00:43.413Z,15.25
2023-05-05T06:04:50.419Z,15.58
2023-05-05T06:08:52.265Z,15.87
2023-05-05T06:12:54.431Z,16.20
2023-05-05T06:16:56.393Z,16.54
2023-05-05T06:21:01.208Z,16.83
2023-05-05T06:25:04.299Z,16.97
2023-05-05T06:29:06.122Z,17.05
2023-05-05T06:33:07.894Z,17.22
2023-05-05T06:37:09.566Z,17.46
2023-05-05T06:41:13.455Z,17.69
2023-05-05T06:45:16.993Z,17.90
2023-05-05T06:49:23.477Z,18.02
2023-05-05T06:53:25.283Z,18.12
2023-05-05T06:57:27.043Z,18.26
2023-05-05T07:01:28.933Z,18.32
2023-05-05T07:05:30.745Z,18.42
2023-05-05T07:09:32.466Z,18.50
2023-05-05T07:13:34.115Z,18.63
2023-05-05T07:17:35.955Z,18.72
2023-05-05T07:21:37.668Z,18.79
2023-05-05T07:25:39.427Z,19.01
2023-05-05T07:29:41.224Z,19.27
2023-05-05T07:33:43.105Z,19.42
2023-05-05T07:37:45.715Z,19.50
2023-05-05T07:41:47.414Z,19.57
2023-05-05T07:45:49.116Z,19.73
2023-05-05T07:49:51.183Z,19.90
2023-05-05T07:53:52.953Z,20.01
2023-05-05T07:57:54.665Z,20.28
2023-05-05T08:01:56.361Z,20.59
2023-05-05T08:06:08.303Z,20.74
2023-05-05T08:10:15.425Z,20.96
2023-05-05T08:14:17.232Z,21.39
2023-05-05T08:18:19.498Z,21.61
2023-05-05T08:22:22.229Z,21.56
2023-05-05T08:26:24.172Z,21.66
2023-05-05T08:30:25.842Z,21.81
2023-05-05T08:34:27.576Z,22.09
2023-05-05T08:38:30.843Z,22.24
2023-05-05T08:42:38.394Z,22.37
2023-05-05T08:46:41.707Z,22.55
2023-05-05T08:50:49.447Z,22.58
2023-05-05T08:55:10.595Z,22.80
2023-05-05T08:59:13.470Z,22.95
2023-05-05T09:03:16.454Z,22.92
2023-05-05T09:07:18.832Z,23.11
2023-05-05T09:11:21.718Z,23.33
2023-05-05T09:15:23.429Z,23.43
2023-05-05T09:19:25.061Z,23.57
2023-05-05T09:23:29.749Z,23.66
2023-05-05T09:27:36.143Z,23.90
2023-05-05T09:31:38.048Z,24.08
2023-05-05T09:35:52.627Z,24.18
2023-05-05T09:39:55.658Z,24.15
2023-05-05T09:43:57.415Z,24.45
2023-05-05T09:48:01.012Z,24.84
2023-05-05T09:52:15.723Z,25.05
2023-05-05T09:56:18.575Z,24.93
2023-05-05T10:00:22.475Z,24.98
2023-05-05T10:04:29.741Z,24.98
2023-05-05T10:08:35.453Z,24.93
2023-05-05T10:12:41.295Z,24.75
2023-05-05T10:16:51.125Z,24.70
2023-05-05T10:21:01.020Z,25.01
2023-05-05T10:25:04.147Z,25.32
2023-05-05T10:29:11.452Z,25.67
2023-05-05T10:33:30.154Z,25.93
2023-05-05T10:37:34.055Z,26.13
2023-05-05T10:41:35.714Z,26.50
2023-05-05T10:45:38.288Z,26.96
2023-05-05T10:49:47.874Z,27.31
2023-05-05T10:54:03.794Z,27.16
2023-05-05T10:58:05.676Z,27.29
2023-05-05T11:02:27.151Z,27.49
2023-05-05T11:06:29.660Z,27.20
2023-05-05T11:10:44.546Z,26.93
2023-05-05T11:14:46.270Z,26.79
2023-05-05T11:18:47.960Z,26.46
2023-05-05T11:23:06.471Z,26.35
2023-05-05T11:27:08.291Z,26.53
2023-05-05T11:31:16.662Z,26.96
2023-05-05T11:35:18.953Z,27.04
2023-05-05T11:39:25.593Z,27.34
2023-05-05T11:43:28.122Z,27.62
2023-05-05T11:47:31.016Z,28.50
2023-05-05T11:51:33.540Z,28.27
2023-05-05T11:55:35.329Z,27.61
2023-05-05T12:00:00.651Z,27.95
2023-05-05T12:04:02.652Z,28.49
2023-05-05T12:08:04.732Z,28.25
2023-05-05T12:12:06.706Z,27.38
2023-05-05T12:16:13.004Z,26.97
2023-05-05T12:20:14.872Z,26.50
2023-05-05T12:24:18.179Z,26.24
2023-05-05T12:28:19.818Z,26.14
2023-05-05T12:32:26.477Z,26.43
2023-05-05T12:36:30.394Z,27.40
2023-05-05T12:40:46.941Z,27.94
2023-05-05T12:44:50.310Z,28.17
2023-05-05T12:49:04.958Z,28.79
2023-05-05T12:53:06.735Z,29.66
2023-05-05T12:57:11.767Z,30.24
2023-05-05T13:01:13.479Z,31.17
2023-05-05T13:05:15.227Z,32.51
2023-05-05T13:09:24.410Z,33.55
2023-05-05T13:13:26.126Z,34.21
2023-05-05T13:17:29.559Z,34.42
2023-05-05T13:21:32.085Z,34.15
2023-05-05T13:25:33.756Z,34.20
2023-05-05T13:29:35.587Z,34.59
2023-05-05T13:33:37.229Z,34.73
2023-05-05T13:37:40.504Z,35.04
2023-05-05T13:41:44.940Z,34.31
2023-05-05T13:45:46.711Z,33.78
2023-05-05T13:49:49.051Z,32.74
2023-05-05T13:53:50.994Z,31.46
2023-05-05T13:57:52.875Z,30.76
2023-05-05T14:01:54.559Z,30.81
2023-05-05T14:05:56.191Z,31.49
2023-05-05T14:09:57.893Z,32.13
2023-05-05T14:13:59.511Z,31.98
2023-05-05T14:18:01.231Z,30.91
2023-05-05T14:22:02.991Z,30.11
2023-05-05T14:26:04.840Z,29.59
2023-05-05T14:30:06.727Z,29.03
2023-05-05T14:34:08.416Z,28.63
2023-05-05T14:38:10.144Z,28.25
2023-05-05T14:42:11.835Z,27.83
2023-05-05T14:46:13.847Z,27.53
2023-05-05T14:50:15.530Z,27.04
2023-05-05T14:54:27.465Z,26.42
2023-05-05T14:58:29.909Z,26.01
2023-05-05T15:02:31.611Z,25.73
2023-05-05T15:06:33.297Z,25.21
2023-05-05T15:10:35.056Z,24.78
2023-05-05T15:14:36.876Z,24.60
2023-05-05T15:18:38.612Z,24.25
2023-05-05T15:22:43.512Z,24.02
2023-05-05T15:26:45.177Z,23.83
2023-05-05T15:30:46.795Z,23.64
2023-05-05T15:57:19.124Z,21.92
2023-05-05T16:01:24.243Z,21.90
2023-05-05T16:05:25.984Z,21.70
2023-05-05T16:09:27.725Z,21.50
2023-05-05T16:13:29.506Z,21.30
2023-05-05T16:17:31.272Z,21.20
2023-05-05T16:21:33.527Z,21.01
2023-05-05T16:25:35.292Z,20.87
2023-05-05T16:29:37.091Z,20.67
2023-05-05T16:33:41.140Z,20.52
2023-05-05T16:37:45.495Z,20.32
2023-05-05T16:41:47.167Z,20.27
2023-05-05T16:45:49.095Z,20.12
2023-05-05T16:49:52.650Z,19.94
2023-05-05T16:53:54.507Z,19.82
2023-05-05T16:57:56.248Z,19.57
2023-05-05T17:01:58.142Z,19.37
2023-05-05T17:06:00.367Z,19.27
2023-05-05T17:10:02.324Z,19.12
2023-05-05T17:14:04.053Z,19.03
2023-05-05T17:18:06.988Z,18.99
2023-05-05T17:22:11.207Z,18.93
2023-05-05T17:26:13.470Z,18.94
2023-05-05T17:30:17.038Z,18.97
2023-05-05T17:34:18.753Z,18.96
2023-05-05T17:38:21.666Z,18.98
2023-05-05T17:42:23.448Z,18.94
2023-05-05T17:46:26.513Z,18.95
2023-05-05T17:50:29.990Z,18.92
2023-05-05T17:54:34.143Z,18.86
2023-05-05T17:58:38.185Z,18.81
2023-05-05T18:02:41.298Z,18.78
2023-05-05T18:06:49.915Z,18.73
2023-05-05T18:11:04.693Z,18.68
2023-05-05T18:15:07.830Z,18.68
2023-05-05T18:19:14.085Z,18.69
2023-05-05T18:23:20.802Z,18.68
2023-05-05T18:27:28.346Z,18.66
2023-05-05T18:31:31.321Z,18.58
2023-05-05T18:35:35.373Z,18.50
2023-05-05T18:39:38.243Z,18.44
2023-05-05T18:43:52.121Z,18.34
2023-05-05T18:48:11.824Z,18.22
2023-05-05T18:52:16.820Z,18.07
2023-05-05T18:56:19.644Z,17.97
2023-05-05T19:00:21.500Z,17.84
2023-05-05T19:04:31.688Z,17.77
2023-05-05T19:08:39.022Z,17.69
2023-05-05T19:12:40.891Z,17.62
2023-05-05T19:16:44.345Z,17.57
2023-05-05T19:25:11.166Z,17.56
2023-05-05T19:29:13.112Z,17.51
2023-05-05T19:33:17.903Z,17.49
2023-05-05T19:37:19.780Z,17.47
2023-05-05T19:41:21.656Z,17.45
2023-05-05T19:45:26.544Z,17.41
2023-05-05T19:49:28.521Z,17.38
2023-05-05T19:53:30.421Z,17.31
2023-05-05T19:57:32.102Z,17.20
2023-05-05T20:01:37.056Z,17.15
2023-05-05T20:05:38.908Z,17.15
2023-05-05T20:09:42.122Z,17.12
2023-05-05T20:13:44.113Z,17.05
2023-05-05T20:17:47.154Z,16.97
2023-05-05T20:21:51.037Z,16.90
2023-05-05T20:25:53.497Z,16.77
2023-05-05T20:29:55.354Z,16.63
2023-05-05T20:33:57.165Z,16.50
2023-05-05T20:37:59.866Z,16.36
2023-05-05T20:42:02.830Z,16.30
2023-05-05T20:46:04.626Z,16.26
2023-05-05T20:50:07.864Z,16.22
2023-05-05T20:54:10.353Z,16.20
2023-05-05T20:58:12.090Z,16.16
2023-05-05T21:02:13.844Z,16.15
2023-05-05T21:06:16.562Z,16.15
2023-05-05T21:10:18.229Z,16.16
2023-05-05T21:14:20.084Z,16.16
2023-05-05T21:18:21.986Z,16.16
2023-05-05T21:22:26.594Z,16.16
2023-05-05T21:26:28.451Z,16.13
2023-05-05T21:30:30.357Z,16.09
2023-05-05T21:34:32.164Z,16.04
2023-05-05T21:38:33.945Z,15.91
2023-05-05T21:42:35.705Z,15.80
2023-05-05T21:46:37.470Z,15.67
2023-05-05T21:50:39.641Z,15.53
2023-05-05T21:54:41.373Z,15.43
2023-05-05T21:58:43.114Z,15.35
2023-05-05T22:02:45.169Z,15.25
2023-05-05T22:06:48.575Z,15.17
2023-05-05T22:10:52.352Z,15.07
2023-05-05T22:14:54.049Z,15.06
2023-05-05T22:18:55.714Z,15.07
2023-05-05T22:22:58.254Z,15.03
2023-05-05T22:27:00.030Z,15.04
2023-05-05T22:31:02.071Z,15.03
2023-05-05T22:35:04.834Z,15.04
2023-05-05T22:39:06.657Z,14.99
2023-05-05T22:43:09.577Z,14.94
2023-05-05T22:47:11.656Z,14.89
2023-05-05T22:51:13.997Z,14.89
2023-05-05T22:55:16.221Z,14.87
2023-05-05T22:59:17.865Z,14.85
2023-05-05T23:03:19.599Z,14.82
2023-05-05T23:07:21.239Z,14.79
2023-05-05T23:11:23.028Z,14.80
2023-05-05T23:15:25.152Z,14.80
2023-05-05T23:19:29.099Z,14.75
2023-05-05T23:23:31.209Z,14.67
2023-05-05T23:27:32.868Z,14.64
2023-05-05T23:31:34.488Z,14.63
2023-05-05T23:35:39.600Z,14.64
2023-05-05T23:39:41.778Z,14.62
2023-05-05T23:43:43.668Z,14.55
2023-05-05T23:47:45.405Z,14.50
2023-05-05T23:51:47.152Z,14.45
2023-05-05T23:55:48.781Z,14.38
2023-05-05T23:59:50.527Z,14.31
